sensor_id;sensor_type;location;lat;lon;timestamp;P1;durP1;ratioP1;P2;durP2;ratioP2
15271;SDS011;7737;51.578;7.268;2024-02-21T00:01:14;22.73;;;12.40;;
15271;SDS011;7737;51.578;7.268;2024-02-21T00:03:41;22.58;;;11.90;;
15271;SDS011;7737;51.578;7.268;2024-02-21T00:06:07;22.13;;;11.90;;
15271;SDS011;7737;51.578;7.268;2024-02-21T00:08:35;21.83;;;12.05;;
15271;SDS011;7737;51.578;7.268;2024-02-21T00:11:02;22.60;;;13.00;;
15271;SDS011;7737;51.578;7.268;2024-02-21T00:13:28;24.40;;;11.95;;
15271;SDS011;7737;51.578;7.268;2024-02-21T00:15:55;23.17;;;12.35;;
15271;SDS011;7737;51.578;7.268;2024-02-21T00:18:21;24.08;;;12.90;;
15271;SDS011;7737;51.578;7.268;2024-02-21T00:20:48;25.75;;;12.40;;
15271;SDS011;7737;51.578;7.268;2024-02-21T00:23:15;21.60;;;12.68;;
15271;SDS011;7737;51.578;7.268;2024-02-21T00:25:42;21.75;;;12.23;;
15271;SDS011;7737;51.578;7.268;2024-02-21T00:28:09;20.70;;;12.43;;
15271;SDS011;7737;51.578;7.268;2024-02-21T00:30:36;20.85;;;11.98;;
15271;SDS011;7737;51.578;7.268;2024-02-21T00:33:03;22.48;;;12.90;;
15271;SDS011;7737;51.578;7.268;2024-02-21T00:35:30;25.27;;;12.50;;
15271;SDS011;7737;51.578;7.268;2024-02-21T00:37:56;22.73;;;12.70;;
15271;SDS011;7737;51.578;7.268;2024-02-21T00:40:24;23.95;;;12.55;;
15271;SDS011;7737;51.578;7.268;2024-02-21T00:42:52;20.45;;;12.80;;
15271;SDS011;7737;51.578;7.268;2024-02-21T00:45:18;23.48;;;12.38;;
15271;SDS011;7737;51.578;7.268;2024-02-21T00:47:45;25.10;;;12.40;;
15271;SDS011;7737;51.578;7.268;2024-02-21T00:50:12;19.30;;;11.73;;
15271;SDS011;7737;51.578;7.268;2024-02-21T00:52:38;25.25;;;12.43;;
15271;SDS011;7737;51.578;7.268;2024-02-21T00:55:05;24.00;;;12.77;;
15271;SDS011;7737;51.578;7.268;2024-02-21T00:57:32;21.00;;;12.25;;
15271;SDS011;7737;51.578;7.268;2024-02-21T01:00:00;22.05;;;11.98;;
15271;SDS011;7737;51.578;7.268;2024-02-21T01:02:27;20.88;;;12.18;;
15271;SDS011;7737;51.578;7.268;2024-02-21T01:04:56;22.33;;;13.32;;
15271;SDS011;7737;51.578;7.268;2024-02-21T01:07:22;19.95;;;11.98;;
15271;SDS011;7737;51.578;7.268;2024-02-21T01:09:49;23.48;;;12.57;;
15271;SDS011;7737;51.578;7.268;2024-02-21T01:12:16;23.88;;;12.20;;
15271;SDS011;7737;51.578;7.268;2024-02-21T01:14:42;23.00;;;12.32;;
15271;SDS011;7737;51.578;7.268;2024-02-21T01:17:12;18.52;;;11.98;;
15271;SDS011;7737;51.578;7.268;2024-02-21T01:19:39;25.45;;;13.13;;
15271;SDS011;7737;51.578;7.268;2024-02-21T01:22:06;25.02;;;13.00;;
15271;SDS011;7737;51.578;7.268;2024-02-21T01:24:33;22.25;;;12.25;;
15271;SDS011;7737;51.578;7.268;2024-02-21T01:26:59;22.65;;;12.15;;
15271;SDS011;7737;51.578;7.268;2024-02-21T01:29:26;21.30;;;11.88;;
15271;SDS011;7737;51.578;7.268;2024-02-21T01:31:52;22.67;;;12.30;;
15271;SDS011;7737;51.578;7.268;2024-02-21T01:34:20;18.30;;;11.68;;
15271;SDS011;7737;51.578;7.268;2024-02-21T01:36:46;20.50;;;11.45;;
15271;SDS011;7737;51.578;7.268;2024-02-21T01:39:13;22.25;;;12.25;;
15271;SDS011;7737;51.578;7.268;2024-02-21T01:41:39;24.42;;;11.85;;
15271;SDS011;7737;51.578;7.268;2024-02-21T01:44:06;21.75;;;12.27;;
15271;SDS011;7737;51.578;7.268;2024-02-21T01:46:32;19.77;;;11.93;;
15271;SDS011;7737;51.578;7.268;2024-02-21T01:49:00;18.83;;;11.32;;
15271;SDS011;7737;51.578;7.268;2024-02-21T01:51:28;21.88;;;11.77;;
15271;SDS011;7737;51.578;7.268;2024-02-21T01:53:55;18.83;;;11.45;;
15271;SDS011;7737;51.578;7.268;2024-02-21T01:56:23;20.70;;;11.80;;
15271;SDS011;7737;51.578;7.268;2024-02-21T01:58:50;18.92;;;11.88;;
15271;SDS011;7737;51.578;7.268;2024-02-21T02:01:17;22.48;;;11.52;;
15271;SDS011;7737;51.578;7.268;2024-02-21T02:03:44;22.85;;;11.95;;
15271;SDS011;7737;51.578;7.268;2024-02-21T02:06:11;20.90;;;11.15;;
15271;SDS011;7737;51.578;7.268;2024-02-21T02:08:40;18.27;;;11.48;;
15271;SDS011;7737;51.578;7.268;2024-02-21T02:11:06;21.70;;;12.40;;
15271;SDS011;7737;51.578;7.268;2024-02-21T02:13:33;21.52;;;11.43;;
15271;SDS011;7737;51.578;7.268;2024-02-21T02:16:00;21.33;;;11.30;;
15271;SDS011;7737;51.578;7.268;2024-02-21T02:18:26;20.80;;;11.27;;
15271;SDS011;7737;51.578;7.268;2024-02-21T02:20:53;20.67;;;11.05;;
15271;SDS011;7737;51.578;7.268;2024-02-21T02:23:22;20.33;;;10.50;;
15271;SDS011;7737;51.578;7.268;2024-02-21T02:25:50;21.10;;;11.07;;
15271;SDS011;7737;51.578;7.268;2024-02-21T02:28:17;23.00;;;11.13;;
15271;SDS011;7737;51.578;7.268;2024-02-21T02:30:44;15.75;;;10.93;;
15271;SDS011;7737;51.578;7.268;2024-02-21T02:33:11;20.73;;;11.45;;
15271;SDS011;7737;51.578;7.268;2024-02-21T02:35:38;16.65;;;10.80;;
15271;SDS011;7737;51.578;7.268;2024-02-21T02:38:05;19.08;;;10.50;;
15271;SDS011;7737;51.578;7.268;2024-02-21T02:40:33;20.17;;;10.65;;
15271;SDS011;7737;51.578;7.268;2024-02-21T02:43:00;18.92;;;10.40;;
15271;SDS011;7737;51.578;7.268;2024-02-21T02:45:28;20.88;;;10.52;;
15271;SDS011;7737;51.578;7.268;2024-02-21T02:47:55;20.15;;;11.30;;
15271;SDS011;7737;51.578;7.268;2024-02-21T02:50:22;17.38;;;10.35;;
15271;SDS011;7737;51.578;7.268;2024-02-21T02:52:48;18.58;;;10.95;;
15271;SDS011;7737;51.578;7.268;2024-02-21T02:55:15;21.20;;;11.00;;
15271;SDS011;7737;51.578;7.268;2024-02-21T02:57:43;19.67;;;10.55;;
15271;SDS011;7737;51.578;7.268;2024-02-21T03:00:10;21.60;;;11.48;;
15271;SDS011;7737;51.578;7.268;2024-02-21T03:02:38;21.13;;;11.00;;
15271;SDS011;7737;51.578;7.268;2024-02-21T03:05:11;21.63;;;11.73;;
15271;SDS011;7737;51.578;7.268;2024-02-21T03:07:39;19.52;;;10.77;;
15271;SDS011;7737;51.578;7.268;2024-02-21T03:10:05;17.60;;;11.00;;
15271;SDS011;7737;51.578;7.268;2024-02-21T03:12:33;22.92;;;11.57;;
15271;SDS011;7737;51.578;7.268;2024-02-21T03:15:00;19.27;;;11.02;;
15271;SDS011;7737;51.578;7.268;2024-02-21T03:17:27;18.95;;;11.15;;
15271;SDS011;7737;51.578;7.268;2024-02-21T03:19:54;21.48;;;11.07;;
15271;SDS011;7737;51.578;7.268;2024-02-21T03:22:21;22.63;;;11.40;;
15271;SDS011;7737;51.578;7.268;2024-02-21T03:24:47;20.27;;;10.68;;
15271;SDS011;7737;51.578;7.268;2024-02-21T03:27:14;19.85;;;10.85;;
15271;SDS011;7737;51.578;7.268;2024-02-21T03:29:40;19.13;;;10.93;;
15271;SDS011;7737;51.578;7.268;2024-02-21T03:32:08;18.80;;;10.80;;
15271;SDS011;7737;51.578;7.268;2024-02-21T03:34:35;18.95;;;11.07;;
15271;SDS011;7737;51.578;7.268;2024-02-21T03:37:01;19.98;;;10.35;;
15271;SDS011;7737;51.578;7.268;2024-02-21T03:39:30;24.35;;;10.77;;
15271;SDS011;7737;51.578;7.268;2024-02-21T03:41:57;20.33;;;10.52;;
15271;SDS011;7737;51.578;7.268;2024-02-21T03:44:25;20.25;;;10.38;;
15271;SDS011;7737;51.578;7.268;2024-02-21T03:46:52;16.83;;;9.88;;
15271;SDS011;7737;51.578;7.268;2024-02-21T03:49:20;19.63;;;10.63;;
15271;SDS011;7737;51.578;7.268;2024-02-21T03:51:46;21.65;;;10.85;;
15271;SDS011;7737;51.578;7.268;2024-02-21T03:54:13;22.58;;;11.57;;
15271;SDS011;7737;51.578;7.268;2024-02-21T03:56:39;17.50;;;10.07;;
15271;SDS011;7737;51.578;7.268;2024-02-21T03:59:06;18.50;;;10.18;;
15271;SDS011;7737;51.578;7.268;2024-02-21T04:01:33;16.33;;;10.23;;
15271;SDS011;7737;51.578;7.268;2024-02-21T04:03:59;17.65;;;9.90;;
15271;SDS011;7737;51.578;7.268;2024-02-21T04:06:27;18.83;;;10.40;;
15271;SDS011;7737;51.578;7.268;2024-02-21T04:08:54;17.75;;;9.68;;
15271;SDS011;7737;51.578;7.268;2024-02-21T04:11:21;18.08;;;9.38;;
15271;SDS011;7737;51.578;7.268;2024-02-21T04:13:47;18.15;;;10.23;;
15271;SDS011;7737;51.578;7.268;2024-02-21T04:16:15;15.10;;;9.65;;
15271;SDS011;7737;51.578;7.268;2024-02-21T04:18:42;18.88;;;10.45;;
15271;SDS011;7737;51.578;7.268;2024-02-21T04:21:09;19.55;;;10.00;;
15271;SDS011;7737;51.578;7.268;2024-02-21T04:23:37;21.30;;;9.70;;
15271;SDS011;7737;51.578;7.268;2024-02-21T04:26:03;18.08;;;10.15;;
15271;SDS011;7737;51.578;7.268;2024-02-21T04:28:30;17.70;;;10.40;;
15271;SDS011;7737;51.578;7.268;2024-02-21T04:30:56;20.38;;;10.95;;
15271;SDS011;7737;51.578;7.268;2024-02-21T04:33:23;17.05;;;9.45;;
15271;SDS011;7737;51.578;7.268;2024-02-21T04:35:49;16.58;;;9.50;;
15271;SDS011;7737;51.578;7.268;2024-02-21T04:38:17;18.73;;;9.00;;
15271;SDS011;7737;51.578;7.268;2024-02-21T04:40:45;18.70;;;9.93;;
15271;SDS011;7737;51.578;7.268;2024-02-21T04:43:11;17.83;;;9.77;;
15271;SDS011;7737;51.578;7.268;2024-02-21T04:45:38;19.83;;;9.68;;
15271;SDS011;7737;51.578;7.268;2024-02-21T04:48:04;18.23;;;9.73;;
15271;SDS011;7737;51.578;7.268;2024-02-21T04:50:31;16.85;;;9.35;;
15271;SDS011;7737;51.578;7.268;2024-02-21T04:52:58;17.52;;;9.52;;
15271;SDS011;7737;51.578;7.268;2024-02-21T04:55:24;16.75;;;10.00;;
15271;SDS011;7737;51.578;7.268;2024-02-21T04:57:52;17.42;;;9.35;;
15271;SDS011;7737;51.578;7.268;2024-02-21T05:00:19;19.33;;;9.10;;
15271;SDS011;7737;51.578;7.268;2024-02-21T05:02:46;19.00;;;8.85;;
15271;SDS011;7737;51.578;7.268;2024-02-21T05:05:12;16.38;;;9.43;;
15271;SDS011;7737;51.578;7.268;2024-02-21T05:07:40;14.95;;;8.75;;
15271;SDS011;7737;51.578;7.268;2024-02-21T05:10:07;12.80;;;7.93;;
15271;SDS011;7737;51.578;7.268;2024-02-21T05:12:34;13.75;;;7.57;;
15271;SDS011;7737;51.578;7.268;2024-02-21T05:15:02;18.08;;;8.77;;
15271;SDS011;7737;51.578;7.268;2024-02-21T05:17:29;13.07;;;7.63;;
15271;SDS011;7737;51.578;7.268;2024-02-21T05:19:56;13.45;;;7.22;;
15271;SDS011;7737;51.578;7.268;2024-02-21T05:22:22;12.20;;;7.57;;
15271;SDS011;7737;51.578;7.268;2024-02-21T05:24:49;14.70;;;7.15;;
15271;SDS011;7737;51.578;7.268;2024-02-21T05:27:15;13.57;;;7.40;;
15271;SDS011;7737;51.578;7.268;2024-02-21T05:29:42;13.13;;;7.10;;
15271;SDS011;7737;51.578;7.268;2024-02-21T05:32:10;11.27;;;6.75;;
15271;SDS011;7737;51.578;7.268;2024-02-21T05:34:37;13.75;;;7.25;;
15271;SDS011;7737;51.578;7.268;2024-02-21T05:37:03;9.32;;;6.57;;
15271;SDS011;7737;51.578;7.268;2024-02-21T05:39:30;11.93;;;6.38;;
15271;SDS011;7737;51.578;7.268;2024-02-21T05:41:56;13.15;;;7.40;;
15271;SDS011;7737;51.578;7.268;2024-02-21T05:44:23;12.43;;;7.20;;
15271;SDS011;7737;51.578;7.268;2024-02-21T05:46:51;12.13;;;7.10;;
15271;SDS011;7737;51.578;7.268;2024-02-21T05:49:18;13.30;;;6.68;;
15271;SDS011;7737;51.578;7.268;2024-02-21T05:51:45;11.55;;;6.45;;
15271;SDS011;7737;51.578;7.268;2024-02-21T05:54:12;10.75;;;6.43;;
15271;SDS011;7737;51.578;7.268;2024-02-21T05:56:38;12.63;;;6.82;;
15271;SDS011;7737;51.578;7.268;2024-02-21T05:59:05;15.70;;;7.07;;
15271;SDS011;7737;51.578;7.268;2024-02-21T06:01:31;11.77;;;6.78;;
15271;SDS011;7737;51.578;7.268;2024-02-21T06:03:58;11.48;;;6.20;;
15271;SDS011;7737;51.578;7.268;2024-02-21T06:06:26;11.18;;;6.53;;
15271;SDS011;7737;51.578;7.268;2024-02-21T06:08:52;12.07;;;6.28;;
15271;SDS011;7737;51.578;7.268;2024-02-21T06:11:19;14.10;;;6.50;;
15271;SDS011;7737;51.578;7.268;2024-02-21T06:13:45;10.32;;;5.93;;
15271;SDS011;7737;51.578;7.268;2024-02-21T06:16:12;10.98;;;6.10;;
15271;SDS011;7737;51.578;7.268;2024-02-21T06:18:39;12.25;;;5.97;;
15271;SDS011;7737;51.578;7.268;2024-02-21T06:21:05;10.52;;;6.15;;
15271;SDS011;7737;51.578;7.268;2024-02-21T06:23:33;12.73;;;6.35;;
15271;SDS011;7737;51.578;7.268;2024-02-21T06:26:00;11.10;;;5.80;;
15271;SDS011;7737;51.578;7.268;2024-02-21T06:28:26;14.48;;;6.35;;
15271;SDS011;7737;51.578;7.268;2024-02-21T06:30:53;10.77;;;5.80;;
15271;SDS011;7737;51.578;7.268;2024-02-21T06:33:19;10.73;;;5.70;;
15271;SDS011;7737;51.578;7.268;2024-02-21T06:35:49;12.73;;;5.82;;
15271;SDS011;7737;51.578;7.268;2024-02-21T06:38:18;11.60;;;5.68;;
15271;SDS011;7737;51.578;7.268;2024-02-21T06:40:46;9.27;;;5.28;;
15271;SDS011;7737;51.578;7.268;2024-02-21T06:43:16;12.23;;;5.30;;
15271;SDS011;7737;51.578;7.268;2024-02-21T06:45:43;9.45;;;4.93;;
15271;SDS011;7737;51.578;7.268;2024-02-21T06:48:12;9.70;;;5.18;;
15271;SDS011;7737;51.578;7.268;2024-02-21T06:50:39;14.45;;;5.47;;
15271;SDS011;7737;51.578;7.268;2024-02-21T06:53:05;9.25;;;4.95;;
15271;SDS011;7737;51.578;7.268;2024-02-21T06:55:32;10.30;;;5.38;;
15271;SDS011;7737;51.578;7.268;2024-02-21T06:58:00;11.15;;;5.28;;
15271;SDS011;7737;51.578;7.268;2024-02-21T07:00:27;9.48;;;5.43;;
15271;SDS011;7737;51.578;7.268;2024-02-21T07:02:53;10.27;;;5.28;;
15271;SDS011;7737;51.578;7.268;2024-02-21T07:05:20;10.43;;;5.18;;
15271;SDS011;7737;51.578;7.268;2024-02-21T07:07:47;11.05;;;5.22;;
15271;SDS011;7737;51.578;7.268;2024-02-21T07:10:13;9.25;;;5.15;;
15271;SDS011;7737;51.578;7.268;2024-02-21T07:12:40;9.32;;;5.18;;
15271;SDS011;7737;51.578;7.268;2024-02-21T07:15:09;10.40;;;4.80;;
15271;SDS011;7737;51.578;7.268;2024-02-21T07:17:36;10.73;;;5.43;;
15271;SDS011;7737;51.578;7.268;2024-02-21T07:20:02;10.15;;;5.20;;
15271;SDS011;7737;51.578;7.268;2024-02-21T07:22:29;9.38;;;5.00;;
15271;SDS011;7737;51.578;7.268;2024-02-21T07:24:56;12.13;;;5.13;;
15271;SDS011;7737;51.578;7.268;2024-02-21T07:27:22;9.32;;;4.88;;
15271;SDS011;7737;51.578;7.268;2024-02-21T07:29:53;10.05;;;5.18;;
15271;SDS011;7737;51.578;7.268;2024-02-21T07:32:21;11.05;;;5.13;;
15271;SDS011;7737;51.578;7.268;2024-02-21T07:34:47;10.23;;;5.18;;
15271;SDS011;7737;51.578;7.268;2024-02-21T07:37:14;10.88;;;5.43;;
15271;SDS011;7737;51.578;7.268;2024-02-21T07:39:40;8.40;;;4.60;;
15271;SDS011;7737;51.578;7.268;2024-02-21T07:42:07;9.02;;;4.78;;
15271;SDS011;7737;51.578;7.268;2024-02-21T07:44:33;9.90;;;5.18;;
15271;SDS011;7737;51.578;7.268;2024-02-21T07:47:00;10.48;;;5.07;;
15271;SDS011;7737;51.578;7.268;2024-02-21T07:49:28;9.70;;;5.18;;
15271;SDS011;7737;51.578;7.268;2024-02-21T07:51:55;10.10;;;4.85;;
15271;SDS011;7737;51.578;7.268;2024-02-21T07:54:21;8.55;;;5.13;;
15271;SDS011;7737;51.578;7.268;2024-02-21T07:56:48;8.57;;;5.20;;
15271;SDS011;7737;51.578;7.268;2024-02-21T07:59:14;11.88;;;5.13;;
15271;SDS011;7737;51.578;7.268;2024-02-21T08:01:41;8.65;;;5.28;;
15271;SDS011;7737;51.578;7.268;2024-02-21T08:04:09;9.13;;;5.32;;
15271;SDS011;7737;51.578;7.268;2024-02-21T08:06:37;11.13;;;5.28;;
15271;SDS011;7737;51.578;7.268;2024-02-21T08:09:04;11.20;;;5.60;;
15271;SDS011;7737;51.578;7.268;2024-02-21T08:11:30;9.77;;;5.20;;
15271;SDS011;7737;51.578;7.268;2024-02-21T08:13:57;10.25;;;5.18;;
15271;SDS011;7737;51.578;7.268;2024-02-21T08:16:24;9.00;;;5.20;;
15271;SDS011;7737;51.578;7.268;2024-02-21T08:18:50;10.07;;;5.13;;
15271;SDS011;7737;51.578;7.268;2024-02-21T08:21:17;9.95;;;5.13;;
15271;SDS011;7737;51.578;7.268;2024-02-21T08:23:45;9.52;;;5.30;;
15271;SDS011;7737;51.578;7.268;2024-02-21T08:26:16;11.70;;;5.30;;
15271;SDS011;7737;51.578;7.268;2024-02-21T08:28:42;10.30;;;5.25;;
15271;SDS011;7737;51.578;7.268;2024-02-21T08:31:09;9.30;;;4.82;;
15271;SDS011;7737;51.578;7.268;2024-02-21T08:33:35;15.57;;;8.55;;
15271;SDS011;7737;51.578;7.268;2024-02-21T08:36:02;10.45;;;5.10;;
15271;SDS011;7737;51.578;7.268;2024-02-21T08:38:29;9.45;;;4.97;;
15271;SDS011;7737;51.578;7.268;2024-02-21T08:40:57;8.63;;;5.18;;
15271;SDS011;7737;51.578;7.268;2024-02-21T08:43:23;9.95;;;4.75;;
15271;SDS011;7737;51.578;7.268;2024-02-21T08:45:50;7.68;;;4.75;;
15271;SDS011;7737;51.578;7.268;2024-02-21T08:48:16;7.40;;;4.40;;
15271;SDS011;7737;51.578;7.268;2024-02-21T08:50:43;8.35;;;5.45;;
15271;SDS011;7737;51.578;7.268;2024-02-21T08:53:09;8.30;;;5.00;;
15271;SDS011;7737;51.578;7.268;2024-02-21T08:55:36;9.05;;;4.18;;
15271;SDS011;7737;51.578;7.268;2024-02-21T08:58:04;8.65;;;4.75;;
15271;SDS011;7737;51.578;7.268;2024-02-21T09:00:30;10.75;;;7.10;;
15271;SDS011;7737;51.578;7.268;2024-02-21T09:02:57;9.30;;;4.55;;
15271;SDS011;7737;51.578;7.268;2024-02-21T09:05:24;15.02;;;7.45;;
15271;SDS011;7737;51.578;7.268;2024-02-21T09:07:50;15.23;;;8.65;;
15271;SDS011;7737;51.578;7.268;2024-02-21T09:10:17;10.52;;;6.28;;
15271;SDS011;7737;51.578;7.268;2024-02-21T09:12:43;15.00;;;7.70;;
15271;SDS011;7737;51.578;7.268;2024-02-21T09:15:11;18.65;;;9.65;;
15271;SDS011;7737;51.578;7.268;2024-02-21T09:17:38;19.23;;;9.77;;
15271;SDS011;7737;51.578;7.268;2024-02-21T09:20:05;12.48;;;6.85;;
15271;SDS011;7737;51.578;7.268;2024-02-21T09:22:32;13.95;;;8.30;;
15271;SDS011;7737;51.578;7.268;2024-02-21T09:25:00;20.73;;;13.25;;
15271;SDS011;7737;51.578;7.268;2024-02-21T09:27:28;7.57;;;4.00;;
15271;SDS011;7737;51.578;7.268;2024-02-21T09:29:54;7.28;;;4.15;;
15271;SDS011;7737;51.578;7.268;2024-02-21T09:32:22;15.02;;;7.55;;
15271;SDS011;7737;51.578;7.268;2024-02-21T09:34:49;10.20;;;4.13;;
15271;SDS011;7737;51.578;7.268;2024-02-21T09:37:15;10.40;;;6.40;;
15271;SDS011;7737;51.578;7.268;2024-02-21T09:39:42;11.27;;;5.43;;
15271;SDS011;7737;51.578;7.268;2024-02-21T09:42:08;14.90;;;5.63;;
15271;SDS011;7737;51.578;7.268;2024-02-21T09:44:37;17.80;;;7.35;;
15271;SDS011;7737;51.578;7.268;2024-02-21T09:47:06;11.68;;;5.50;;
15271;SDS011;7737;51.578;7.268;2024-02-21T09:49:38;13.52;;;6.22;;
15271;SDS011;7737;51.578;7.268;2024-02-21T09:52:06;10.80;;;5.72;;
15271;SDS011;7737;51.578;7.268;2024-02-21T09:54:34;11.82;;;6.22;;
15271;SDS011;7737;51.578;7.268;2024-02-21T09:57:00;11.57;;;5.20;;
15271;SDS011;7737;51.578;7.268;2024-02-21T09:59:27;11.00;;;6.55;;
15271;SDS011;7737;51.578;7.268;2024-02-21T10:01:54;13.38;;;5.45;;
15271;SDS011;7737;51.578;7.268;2024-02-21T10:04:21;22.20;;;12.40;;
15271;SDS011;7737;51.578;7.268;2024-02-21T10:06:49;10.75;;;5.38;;
15271;SDS011;7737;51.578;7.268;2024-02-21T10:09:20;12.48;;;5.50;;
15271;SDS011;7737;51.578;7.268;2024-02-21T10:11:48;14.27;;;7.40;;
15271;SDS011;7737;51.578;7.268;2024-02-21T10:14:15;16.88;;;6.68;;
15271;SDS011;7737;51.578;7.268;2024-02-21T10:16:42;15.20;;;7.22;;
15271;SDS011;7737;51.578;7.268;2024-02-21T10:19:15;12.48;;;5.63;;
15271;SDS011;7737;51.578;7.268;2024-02-21T10:21:42;11.93;;;6.60;;
15271;SDS011;7737;51.578;7.268;2024-02-21T10:24:12;10.07;;;5.30;;
15271;SDS011;7737;51.578;7.268;2024-02-21T10:26:39;11.77;;;5.68;;
15271;SDS011;7737;51.578;7.268;2024-02-21T10:29:05;11.70;;;5.85;;
15271;SDS011;7737;51.578;7.268;2024-02-21T10:31:32;13.07;;;5.50;;
15271;SDS011;7737;51.578;7.268;2024-02-21T10:33:59;10.40;;;5.95;;
15271;SDS011;7737;51.578;7.268;2024-02-21T10:36:28;11.35;;;6.35;;
15271;SDS011;7737;51.578;7.268;2024-02-21T10:38:55;12.55;;;6.75;;
15271;SDS011;7737;51.578;7.268;2024-02-21T10:41:24;15.60;;;8.40;;
15271;SDS011;7737;51.578;7.268;2024-02-21T10:43:52;13.23;;;8.43;;
15271;SDS011;7737;51.578;7.268;2024-02-21T10:46:20;14.45;;;8.85;;
15271;SDS011;7737;51.578;7.268;2024-02-21T10:48:50;12.52;;;7.15;;
15271;SDS011;7737;51.578;7.268;2024-02-21T10:51:26;14.73;;;7.30;;
15271;SDS011;7737;51.578;7.268;2024-02-21T10:54:02;8.65;;;5.47;;
15271;SDS011;7737;51.578;7.268;2024-02-21T10:56:40;10.20;;;5.65;;
15271;SDS011;7737;51.578;7.268;2024-02-21T10:59:07;8.25;;;5.10;;
15271;SDS011;7737;51.578;7.268;2024-02-21T11:01:34;10.43;;;6.43;;
15271;SDS011;7737;51.578;7.268;2024-02-21T11:04:01;10.02;;;4.70;;
15271;SDS011;7737;51.578;7.268;2024-02-21T11:06:30;9.60;;;6.13;;
15271;SDS011;7737;51.578;7.268;2024-02-21T11:09:00;10.23;;;5.28;;
15271;SDS011;7737;51.578;7.268;2024-02-21T11:11:32;10.65;;;5.95;;
15271;SDS011;7737;51.578;7.268;2024-02-21T11:14:07;7.38;;;3.90;;
15271;SDS011;7737;51.578;7.268;2024-02-21T11:16:35;8.50;;;4.40;;
15271;SDS011;7737;51.578;7.268;2024-02-21T11:19:09;10.85;;;4.70;;
15271;SDS011;7737;51.578;7.268;2024-02-21T11:21:45;9.00;;;4.28;;
15271;SDS011;7737;51.578;7.268;2024-02-21T11:24:13;7.82;;;4.20;;
15271;SDS011;7737;51.578;7.268;2024-02-21T11:26:40;7.82;;;3.90;;
15271;SDS011;7737;51.578;7.268;2024-02-21T11:29:09;11.68;;;6.40;;
15271;SDS011;7737;51.578;7.268;2024-02-21T11:31:41;9.32;;;4.88;;
15271;SDS011;7737;51.578;7.268;2024-02-21T11:34:08;10.63;;;7.43;;
15271;SDS011;7737;51.578;7.268;2024-02-21T11:36:35;8.70;;;4.80;;
15271;SDS011;7737;51.578;7.268;2024-02-21T11:39:05;9.30;;;5.18;;
15271;SDS011;7737;51.578;7.268;2024-02-21T11:41:31;7.30;;;4.93;;
15271;SDS011;7737;51.578;7.268;2024-02-21T11:43:58;7.65;;;4.63;;
15271;SDS011;7737;51.578;7.268;2024-02-21T11:46:26;7.30;;;4.03;;
15271;SDS011;7737;51.578;7.268;2024-02-21T11:48:52;6.50;;;3.67;;
15271;SDS011;7737;51.578;7.268;2024-02-21T11:51:24;7.72;;;4.03;;
15271;SDS011;7737;51.578;7.268;2024-02-21T11:53:51;7.80;;;4.38;;
15271;SDS011;7737;51.578;7.268;2024-02-21T11:56:18;7.47;;;4.50;;
15271;SDS011;7737;51.578;7.268;2024-02-21T11:58:45;10.20;;;4.80;;
15271;SDS011;7737;51.578;7.268;2024-02-21T12:01:12;8.95;;;4.30;;
15271;SDS011;7737;51.578;7.268;2024-02-21T12:03:40;7.15;;;3.90;;
15271;SDS011;7737;51.578;7.268;2024-02-21T12:06:07;8.25;;;3.97;;
15271;SDS011;7737;51.578;7.268;2024-02-21T12:08:40;6.80;;;4.22;;
15271;SDS011;7737;51.578;7.268;2024-02-21T12:11:15;5.57;;;3.38;;
15271;SDS011;7737;51.578;7.268;2024-02-21T12:13:43;5.55;;;3.28;;
15271;SDS011;7737;51.578;7.268;2024-02-21T12:16:10;8.52;;;3.70;;
15271;SDS011;7737;51.578;7.268;2024-02-21T12:18:36;8.23;;;3.97;;
15271;SDS011;7737;51.578;7.268;2024-02-21T12:21:05;8.63;;;4.25;;
15271;SDS011;7737;51.578;7.268;2024-02-21T12:23:32;6.78;;;3.88;;
15271;SDS011;7737;51.578;7.268;2024-02-21T12:25:58;10.05;;;5.85;;
15271;SDS011;7737;51.578;7.268;2024-02-21T12:28:25;8.68;;;4.85;;
15271;SDS011;7737;51.578;7.268;2024-02-21T12:30:52;8.93;;;3.65;;
15271;SDS011;7737;51.578;7.268;2024-02-21T12:33:18;7.45;;;3.60;;
15271;SDS011;7737;51.578;7.268;2024-02-21T12:35:45;7.20;;;3.80;;
15271;SDS011;7737;51.578;7.268;2024-02-21T12:38:13;7.43;;;3.50;;
15271;SDS011;7737;51.578;7.268;2024-02-21T12:40:39;5.80;;;3.20;;
15271;SDS011;7737;51.578;7.268;2024-02-21T12:43:06;8.10;;;3.78;;
15271;SDS011;7737;51.578;7.268;2024-02-21T12:45:33;7.45;;;3.53;;
15271;SDS011;7737;51.578;7.268;2024-02-21T12:47:59;8.57;;;3.45;;
15271;SDS011;7737;51.578;7.268;2024-02-21T12:50:26;9.75;;;3.20;;
15271;SDS011;7737;51.578;7.268;2024-02-21T12:52:53;7.05;;;3.40;;
15271;SDS011;7737;51.578;7.268;2024-02-21T12:55:21;8.35;;;3.70;;
15271;SDS011;7737;51.578;7.268;2024-02-21T12:57:47;7.03;;;3.33;;
15271;SDS011;7737;51.578;7.268;2024-02-21T13:00:14;7.20;;;3.15;;
15271;SDS011;7737;51.578;7.268;2024-02-21T13:02:41;7.72;;;2.70;;
15271;SDS011;7737;51.578;7.268;2024-02-21T13:05:08;7.47;;;3.33;;
15271;SDS011;7737;51.578;7.268;2024-02-21T13:07:34;8.90;;;3.80;;
15271;SDS011;7737;51.578;7.268;2024-02-21T13:10:01;5.50;;;2.90;;
15271;SDS011;7737;51.578;7.268;2024-02-21T13:12:33;5.20;;;2.97;;
15271;SDS011;7737;51.578;7.268;2024-02-21T13:14:59;9.63;;;2.88;;
15271;SDS011;7737;51.578;7.268;2024-02-21T13:17:26;5.57;;;2.45;;
15271;SDS011;7737;51.578;7.268;2024-02-21T13:19:55;4.88;;;2.20;;
15271;SDS011;7737;51.578;7.268;2024-02-21T13:22:22;5.75;;;2.10;;
15271;SDS011;7737;51.578;7.268;2024-02-21T13:24:50;6.68;;;2.60;;
15271;SDS011;7737;51.578;7.268;2024-02-21T13:27:17;7.03;;;2.53;;
15271;SDS011;7737;51.578;7.268;2024-02-21T13:29:45;6.82;;;2.70;;
15271;SDS011;7737;51.578;7.268;2024-02-21T13:32:11;5.88;;;2.13;;
15271;SDS011;7737;51.578;7.268;2024-02-21T13:34:39;7.47;;;2.50;;
15271;SDS011;7737;51.578;7.268;2024-02-21T13:37:05;6.95;;;2.40;;
15271;SDS011;7737;51.578;7.268;2024-02-21T13:39:34;6.78;;;2.40;;
15271;SDS011;7737;51.578;7.268;2024-02-21T13:42:01;11.60;;;3.30;;
15271;SDS011;7737;51.578;7.268;2024-02-21T13:44:30;7.50;;;2.95;;
15271;SDS011;7737;51.578;7.268;2024-02-21T13:46:58;7.13;;;2.67;;
15271;SDS011;7737;51.578;7.268;2024-02-21T13:49:24;7.80;;;2.58;;
15271;SDS011;7737;51.578;7.268;2024-02-21T13:51:51;4.55;;;2.50;;
15271;SDS011;7737;51.578;7.268;2024-02-21T13:54:18;4.82;;;2.03;;
15271;SDS011;7737;51.578;7.268;2024-02-21T13:56:44;6.30;;;2.13;;
15271;SDS011;7737;51.578;7.268;2024-02-21T13:59:11;6.05;;;2.80;;
15271;SDS011;7737;51.578;7.268;2024-02-21T14:01:38;7.10;;;2.40;;
15271;SDS011;7737;51.578;7.268;2024-02-21T14:04:06;6.90;;;2.50;;
15271;SDS011;7737;51.578;7.268;2024-02-21T14:06:33;8.98;;;4.15;;
15271;SDS011;7737;51.578;7.268;2024-02-21T14:08:59;6.60;;;3.08;;
15271;SDS011;7737;51.578;7.268;2024-02-21T14:11:26;9.07;;;3.42;;
15271;SDS011;7737;51.578;7.268;2024-02-21T14:13:53;6.78;;;2.70;;
15271;SDS011;7737;51.578;7.268;2024-02-21T14:16:22;5.97;;;2.70;;
15271;SDS011;7737;51.578;7.268;2024-02-21T14:18:49;7.47;;;2.50;;
15271;SDS011;7737;51.578;7.268;2024-02-21T14:21:16;7.88;;;2.85;;
15271;SDS011;7737;51.578;7.268;2024-02-21T14:23:43;8.10;;;3.10;;
15271;SDS011;7737;51.578;7.268;2024-02-21T14:26:09;5.82;;;2.95;;
15271;SDS011;7737;51.578;7.268;2024-02-21T14:28:37;6.97;;;2.65;;
15271;SDS011;7737;51.578;7.268;2024-02-21T14:31:03;5.65;;;2.60;;
15271;SDS011;7737;51.578;7.268;2024-02-21T14:33:32;5.25;;;2.28;;
15271;SDS011;7737;51.578;7.268;2024-02-21T14:35:58;7.43;;;2.30;;
15271;SDS011;7737;51.578;7.268;2024-02-21T14:38:26;7.70;;;2.50;;
15271;SDS011;7737;51.578;7.268;2024-02-21T14:40:53;7.95;;;2.60;;
15271;SDS011;7737;51.578;7.268;2024-02-21T14:43:19;7.78;;;2.90;;
15271;SDS011;7737;51.578;7.268;2024-02-21T14:45:47;6.30;;;2.47;;
15271;SDS011;7737;51.578;7.268;2024-02-21T14:48:13;7.65;;;2.80;;